createdAt,value
2019-04-30T00:01:40.425Z,99.90
2019-04-30T00:04:29.962Z,99.90
2019-04-30T00:06:56.045Z,99.90
2019-04-30T00:09:25.601Z,99.90
2019-04-30T00:11:57.860Z,99.90
2019-04-30T00:14:27.713Z,99.90
2019-04-30T00:16:56.129Z,99.90
2019-04-30T00:19:25.873Z,99.90
2019-04-30T00:22:00.132Z,99.90
2019-04-30T00:24:26.034Z,99.90
2019-04-30T00:26:56.568Z,99.90
2019-04-30T00:29:30.450Z,99.90
2019-04-30T00:31:59.257Z,99.90
2019-04-30T00:34:31.015Z,99.90
2019-04-30T00:36:57.766Z,99.90
2019-04-30T00:39:27.307Z,99.90
2019-04-30T00:41:56.704Z,99.90
2019-04-30T00:44:28.412Z,99.90
2019-04-30T00:47:00.584Z,99.90
2019-04-30T00:49:27.268Z,99.90
2019-04-30T00:51:58.158Z,99.90
2019-04-30T00:54:29.506Z,99.90
2019-04-30T00:57:03.775Z,99.90
2019-04-30T00:59:28.315Z,99.90
2019-04-30T01:02:19.911Z,99.90
2019-04-30T01:04:48.096Z,99.90
2019-04-30T01:07:17.110Z,99.90
2019-04-30T01:09:49.566Z,99.90
2019-04-30T01:12:24.295Z,99.90
2019-04-30T01:14:47.434Z,99.90
2019-04-30T01:17:16.460Z,99.90
2019-04-30T01:19:45.907Z,99.90
2019-04-30T01:22:21.517Z,99.90
2019-04-30T01:24:46.954Z,99.90
2019-04-30T01:27:18.694Z,99.90
2019-04-30T01:29:48.719Z,99.90
2019-04-30T01:32:20.969Z,99.90
2019-04-30T01:34:49.942Z,99.90
2019-04-30T01:37:24.681Z,99.90
2019-04-30T01:39:49.968Z,99.90
2019-04-30T01:42:18.972Z,99.90
2019-04-30T01:44:50.936Z,99.90
2019-04-30T01:47:23.039Z,99.90
2019-04-30T01:49:49.632Z,99.90
2019-04-30T01:52:19.352Z,99.90
2019-04-30T01:54:49.040Z,99.90
2019-04-30T01:57:26.172Z,99.90
2019-04-30T02:00:13.153Z,99.90
2019-04-30T02:02:43.398Z,99.90
2019-04-30T02:05:12.802Z,99.90
2019-04-30T02:07:41.757Z,99.90
2019-04-30T02:10:10.952Z,99.90
2019-04-30T02:12:39.976Z,99.90
2019-04-30T02:15:09.582Z,99.90
2019-04-30T02:17:38.914Z,99.90
2019-04-30T02:20:08.917Z,99.90
2019-04-30T02:22:38.940Z,99.90
2019-04-30T02:25:09.597Z,99.90
2019-04-30T02:27:39.043Z,99.90
2019-04-30T02:30:11.129Z,99.90
2019-04-30T02:32:39.625Z,99.90
2019-04-30T02:35:15.977Z,99.90
2019-04-30T02:38:04.047Z,99.90
2019-04-30T02:40:36.229Z,99.90
2019-04-30T02:43:05.739Z,99.90
2019-04-30T02:45:39.947Z,99.90
2019-04-30T02:48:11.429Z,99.90
2019-04-30T02:50:42.012Z,99.90
2019-04-30T02:53:50.212Z,99.90
2019-04-30T02:56:20.144Z,99.90
2019-04-30T02:58:50.601Z,99.90
2019-04-30T03:01:20.423Z,99.90
2019-04-30T03:03:50.174Z,99.90
2019-04-30T03:06:23.166Z,99.90
2019-04-30T03:08:51.167Z,99.90
2019-04-30T03:11:20.972Z,99.90
2019-04-30T03:13:50.137Z,99.90
2019-04-30T03:16:22.934Z,99.90
2019-04-30T03:19:10.931Z,99.90
2019-04-30T03:21:42.780Z,99.90
2019-04-30T03:24:11.905Z,99.90
2019-04-30T03:26:40.933Z,99.90
2019-04-30T03:29:11.156Z,99.90
2019-04-30T03:31:44.153Z,99.90
2019-04-30T03:34:17.556Z,99.90
2019-04-30T03:36:42.136Z,99.90
2019-04-30T03:39:11.366Z,99.90
2019-04-30T03:41:41.674Z,99.90
2019-04-30T03:44:24.743Z,99.90
2019-04-30T03:46:41.433Z,99.90
2019-04-30T03:49:13.209Z,99.90
2019-04-30T03:51:41.170Z,99.90
2019-04-30T03:54:10.468Z,99.90
2019-04-30T03:56:40.128Z,99.90
2019-04-30T03:59:10.692Z,99.90
2019-04-30T04:01:49.784Z,99.90
2019-04-30T04:04:43.800Z,99.90
2019-04-30T04:07:25.223Z,99.90
2019-04-30T04:10:19.616Z,99.90
2019-04-30T04:12:49.796Z,99.90
2019-04-30T04:15:19.918Z,99.90
2019-04-30T04:17:50.480Z,99.90
2019-04-30T04:20:20.331Z,99.90
2019-04-30T04:22:49.827Z,99.90
2019-04-30T04:25:20.445Z,99.90
2019-04-30T04:27:50.976Z,99.90
2019-04-30T04:30:21.842Z,99.90
2019-04-30T04:32:53.737Z,99.90
2019-04-30T04:35:22.622Z,99.90
2019-04-30T04:37:51.548Z,99.90
2019-04-30T04:40:21.244Z,99.90
2019-04-30T04:42:50.344Z,99.90
2019-04-30T04:45:19.972Z,99.90
2019-04-30T04:47:50.381Z,99.90
2019-04-30T04:50:20.277Z,99.90
2019-04-30T04:52:49.731Z,99.90
2019-04-30T04:55:21.893Z,99.90
2019-04-30T04:57:50.176Z,99.90
2019-04-30T05:00:19.583Z,99.90
2019-04-30T05:03:05.999Z,99.90
2019-04-30T05:05:35.017Z,99.90
2019-04-30T05:08:04.021Z,99.90
2019-04-30T05:10:33.034Z,99.90
2019-04-30T05:13:02.051Z,99.90
2019-04-30T05:15:31.080Z,99.90
2019-04-30T05:18:00.101Z,99.90
2019-04-30T05:20:29.265Z,99.90
2019-04-30T05:22:58.580Z,99.90
2019-04-30T05:25:29.484Z,99.90
2019-04-30T05:27:58.769Z,99.90
2019-04-30T05:30:29.333Z,99.90
2019-04-30T05:32:58.855Z,99.90
2019-04-30T05:35:28.405Z,99.90
2019-04-30T05:37:59.265Z,99.90
2019-04-30T05:40:28.783Z,99.90
2019-04-30T05:42:57.759Z,99.90
2019-04-30T05:45:26.784Z,99.90
2019-04-30T05:47:55.781Z,99.90
2019-04-30T05:50:24.724Z,99.90
2019-04-30T05:52:53.593Z,99.90
2019-04-30T05:55:22.532Z,99.90
2019-04-30T05:57:55.902Z,99.90
2019-04-30T06:00:22.476Z,99.90
2019-04-30T06:02:51.491Z,99.90
2019-04-30T06:05:20.500Z,99.90
2019-04-30T06:07:51.972Z,99.90
2019-04-30T06:10:29.503Z,99.90
2019-04-30T06:13:19.037Z,99.90
2019-04-30T06:15:54.927Z,99.90
2019-04-30T06:18:23.977Z,99.90
2019-04-30T06:20:52.964Z,99.90
2019-04-30T06:23:22.070Z,99.90
2019-04-30T06:25:59.427Z,99.90
2019-04-30T06:28:23.776Z,99.90
2019-04-30T06:30:52.893Z,99.90
2019-04-30T06:33:22.785Z,99.90
2019-04-30T06:35:52.601Z,99.90
2019-04-30T06:38:21.608Z,99.90
2019-04-30T06:40:50.622Z,99.90
2019-04-30T06:43:20.046Z,99.90
2019-04-30T06:45:51.216Z,99.90
2019-04-30T06:48:20.117Z,99.90
2019-04-30T06:50:49.341Z,99.90
2019-04-30T06:53:19.229Z,99.90
2019-04-30T06:55:49.274Z,99.90
2019-04-30T06:58:20.469Z,99.90
2019-04-30T07:00:49.692Z,99.90
2019-04-30T07:03:19.264Z,99.90
2019-04-30T07:05:48.776Z,99.90
2019-04-30T07:08:39.527Z,99.90
2019-04-30T07:11:29.340Z,99.90
2019-04-30T07:13:59.988Z,99.90
2019-04-30T07:16:29.811Z,99.90
2019-04-30T07:18:59.009Z,99.90
2019-04-30T07:21:29.463Z,99.90
2019-04-30T07:23:59.673Z,99.90
2019-04-30T07:26:29.067Z,99.90
2019-04-30T07:29:02.199Z,99.90
2019-04-30T07:31:29.620Z,99.90
2019-04-30T07:33:59.459Z,99.90
2019-04-30T07:36:43.312Z,99.90
2019-04-30T07:38:59.968Z,99.90
2019-04-30T07:41:30.764Z,99.90
2019-04-30T07:43:59.770Z,99.90
2019-04-30T07:46:30.073Z,99.90
2019-04-30T07:49:00.042Z,99.90
2019-04-30T07:51:32.175Z,99.90
2019-04-30T07:53:59.795Z,99.90
2019-04-30T07:56:34.911Z,99.90
2019-04-30T07:59:00.790Z,99.90
2019-04-30T08:01:30.156Z,99.90
2019-04-30T08:04:04.725Z,99.90
2019-04-30T08:06:33.784Z,99.90
2019-04-30T08:09:02.957Z,99.90
2019-04-30T08:11:37.346Z,99.90
2019-04-30T08:14:03.006Z,99.90
2019-04-30T08:16:32.256Z,99.90
2019-04-30T08:19:01.280Z,99.90
2019-04-30T08:21:30.300Z,99.90
2019-04-30T08:24:01.018Z,99.90
2019-04-30T08:26:30.190Z,99.90
2019-04-30T08:28:59.801Z,99.90
2019-04-30T08:31:29.214Z,99.90
2019-04-30T08:33:59.109Z,99.90
2019-04-30T08:36:29.864Z,99.90
2019-04-30T08:39:04.596Z,99.90
2019-04-30T08:41:33.642Z,99.90
2019-04-30T08:44:02.587Z,99.90
2019-04-30T08:46:31.596Z,99.90
2019-04-30T08:49:00.915Z,99.90
2019-04-30T08:51:31.033Z,99.90
2019-04-30T08:54:00.948Z,99.90
2019-04-30T08:56:29.966Z,99.90
2019-04-30T08:58:59.422Z,99.90
2019-04-30T09:01:29.512Z,99.90
2019-04-30T09:04:00.518Z,99.90
2019-04-30T09:06:30.328Z,99.90
2019-04-30T09:09:03.918Z,99.90
2019-04-30T09:11:43.048Z,99.90
2019-04-30T09:14:03.589Z,99.90
2019-04-30T09:16:32.559Z,99.90
2019-04-30T09:19:01.628Z,99.90
2019-04-30T09:21:30.568Z,99.90
2019-04-30T09:23:59.612Z,99.90
2019-04-30T09:26:29.165Z,99.90
2019-04-30T09:28:59.327Z,99.90
2019-04-30T09:31:29.652Z,99.90
2019-04-30T09:34:01.023Z,99.90
2019-04-30T09:36:29.603Z,99.90
2019-04-30T09:39:01.316Z,99.90
2019-04-30T09:41:29.368Z,99.90
2019-04-30T09:43:59.740Z,99.90
2019-04-30T09:46:29.896Z,99.90
2019-04-30T09:48:59.731Z,99.90
2019-04-30T09:51:30.380Z,99.90
2019-04-30T09:54:03.099Z,99.90
2019-04-30T09:56:30.441Z,99.90
2019-04-30T09:58:59.463Z,99.90
2019-04-30T10:01:28.548Z,99.90
2019-04-30T10:03:59.936Z,99.90
2019-04-30T10:06:38.998Z,99.90
2019-04-30T10:08:59.753Z,99.90
2019-04-30T10:11:49.855Z,99.90
2019-04-30T10:14:18.645Z,99.90
2019-04-30T10:17:00.152Z,99.90
2019-04-30T10:19:29.390Z,99.90
2019-04-30T10:21:58.996Z,99.90
2019-04-30T10:24:29.496Z,99.90
2019-04-30T10:27:00.398Z,99.90
2019-04-30T10:29:29.415Z,99.90
2019-04-30T10:31:58.842Z,99.90
2019-04-30T10:34:27.860Z,99.90
2019-04-30T10:36:59.135Z,99.90
2019-04-30T10:39:29.678Z,99.90
2019-04-30T10:41:59.565Z,99.90
2019-04-30T10:44:29.923Z,99.90
2019-04-30T10:46:59.402Z,99.90
2019-04-30T10:49:29.225Z,99.90
2019-04-30T10:52:00.808Z,99.90
2019-04-30T10:54:29.191Z,99.90
2019-04-30T10:56:59.129Z,99.90
2019-04-30T10:59:28.378Z,99.90
2019-04-30T11:01:59.189Z,99.90
2019-04-30T11:04:29.261Z,99.90
2019-04-30T11:07:00.388Z,99.90
2019-04-30T11:09:31.012Z,99.90
2019-04-30T11:12:02.904Z,99.90
2019-04-30T11:14:31.080Z,99.90
2019-04-30T11:17:00.402Z,99.90
2019-04-30T11:19:29.815Z,99.90
2019-04-30T11:21:59.147Z,99.90
2019-04-30T11:24:36.564Z,99.90
2019-04-30T11:27:00.102Z,99.90
2019-04-30T11:29:30.978Z,99.90
2019-04-30T11:32:14.369Z,99.90
2019-04-30T11:34:48.444Z,99.90
2019-04-30T11:37:17.572Z,99.90
2019-04-30T11:39:46.593Z,99.90
2019-04-30T11:42:15.597Z,99.90
2019-04-30T11:44:44.646Z,99.90
2019-04-30T11:47:35.892Z,99.90
2019-04-30T11:50:07.204Z,99.90
2019-04-30T11:52:36.220Z,99.90
2019-04-30T11:55:06.506Z,99.90
2019-04-30T11:57:39.735Z,99.90
2019-04-30T12:00:11.816Z,99.90
2019-04-30T12:02:42.165Z,99.90
2019-04-30T12:05:14.244Z,99.90
2019-04-30T12:07:54.165Z,99.90
2019-04-30T12:10:35.976Z,99.90
2019-04-30T12:13:06.644Z,97.10
2019-04-30T12:15:35.600Z,99.90
2019-04-30T12:18:04.712Z,99.00
2019-04-30T12:20:34.279Z,98.60
2019-04-30T12:23:03.224Z,99.90
2019-04-30T12:25:32.181Z,99.90
2019-04-30T12:28:01.388Z,99.90
2019-04-30T12:30:30.418Z,99.90
2019-04-30T12:32:59.384Z,97.00
2019-04-30T12:35:28.341Z,99.60
2019-04-30T12:37:58.778Z,96.30
2019-04-30T12:40:30.075Z,97.70
2019-04-30T12:42:59.889Z,95.60
2019-04-30T12:45:29.460Z,95.70
2019-04-30T12:48:02.433Z,95.40
2019-04-30T12:50:43.462Z,93.30
2019-04-30T12:53:23.675Z,94.10
2019-04-30T12:56:11.233Z,93.00
2019-04-30T12:58:40.199Z,93.40
2019-04-30T13:01:09.521Z,93.70
2019-04-30T13:03:39.911Z,95.10
2019-04-30T13:06:11.102Z,93.50
2019-04-30T13:08:40.283Z,95.20
2019-04-30T13:11:12.269Z,94.20
2019-04-30T13:13:41.260Z,92.90
2019-04-30T13:16:10.665Z,95.60
2019-04-30T13:18:39.676Z,94.90
2019-04-30T13:21:08.701Z,92.50
2019-04-30T13:23:37.648Z,94.10
2019-04-30T13:26:08.786Z,90.50
2019-04-30T13:28:49.030Z,90.40
2019-04-30T13:31:19.342Z,90.20
2019-04-30T13:33:53.017Z,92.30
2019-04-30T13:36:22.469Z,90.40
2019-04-30T13:39:00.113Z,89.40
2019-04-30T13:41:43.597Z,93.90
2019-04-30T13:44:22.443Z,86.00
2019-04-30T13:46:51.377Z,89.10
2019-04-30T13:49:20.392Z,86.50
2019-04-30T13:51:49.424Z,87.70
2019-04-30T13:54:18.445Z,87.00
2019-04-30T13:56:49.315Z,90.10
2019-04-30T13:59:18.462Z,88.80
2019-04-30T14:01:48.921Z,91.20
2019-04-30T14:04:36.943Z,94.00
2019-04-30T14:07:40.284Z,90.80
2019-04-30T14:10:10.253Z,89.90
2019-04-30T14:12:44.088Z,86.60
2019-04-30T14:15:13.405Z,84.50
2019-04-30T14:17:42.353Z,82.20
2019-04-30T14:20:11.664Z,91.10
2019-04-30T14:22:40.726Z,89.00
2019-04-30T14:25:09.845Z,82.80
2019-04-30T14:27:48.969Z,79.70
2019-04-30T14:30:09.996Z,77.70
2019-04-30T14:32:39.648Z,79.00
2019-04-30T14:35:09.134Z,70.10
2019-04-30T14:37:38.931Z,70.50
2019-04-30T14:40:12.327Z,72.90
2019-04-30T14:42:45.054Z,74.30
2019-04-30T14:45:22.548Z,73.70
2019-04-30T14:48:07.448Z,85.10
2019-04-30T14:50:38.567Z,80.60
2019-04-30T14:53:32.214Z,86.10
2019-04-30T14:56:20.241Z,72.30
2019-04-30T14:59:06.955Z,68.20
2019-04-30T15:01:44.201Z,69.90
2019-04-30T15:04:13.249Z,69.10
2019-04-30T15:06:42.263Z,76.50
2019-04-30T15:09:11.876Z,77.50
2019-04-30T15:11:40.906Z,79.80
2019-04-30T15:14:09.766Z,80.30
2019-04-30T15:16:38.658Z,84.30
2019-04-30T15:19:07.604Z,92.50
2019-04-30T15:21:36.486Z,95.20
2019-04-30T15:24:13.101Z,92.30
2019-04-30T15:26:42.138Z,93.40
2019-04-30T15:29:14.352Z,93.80
2019-04-30T15:31:42.653Z,94.10
2019-04-30T15:34:13.357Z,95.30
2019-04-30T15:36:42.305Z,96.40
2019-04-30T15:39:30.910Z,97.80
2019-04-30T15:42:00.077Z,98.30
2019-04-30T15:44:29.211Z,98.80
2019-04-30T15:47:00.331Z,99.30
2019-04-30T15:49:29.052Z,99.90
2019-04-30T15:51:58.080Z,99.90
2019-04-30T15:54:29.156Z,99.90
2019-04-30T15:57:00.261Z,99.90
2019-04-30T15:59:39.442Z,99.90
2019-04-30T16:02:23.354Z,99.90
2019-04-30T16:05:23.377Z,99.90
2019-04-30T16:08:09.890Z,99.90
2019-04-30T16:11:06.878Z,99.90
2019-04-30T16:13:52.541Z,99.90
2019-04-30T16:16:22.057Z,99.90
2019-04-30T16:18:51.014Z,99.90
2019-04-30T16:21:19.956Z,99.90
2019-04-30T16:23:49.265Z,99.90
2019-04-30T16:26:18.376Z,99.90
2019-04-30T16:28:49.377Z,99.90
2019-04-30T16:31:18.953Z,99.90
2019-04-30T16:33:49.341Z,99.90
2019-04-30T16:36:19.307Z,99.90
2019-04-30T16:38:48.784Z,99.90
2019-04-30T16:41:30.790Z,99.90
2019-04-30T16:43:49.286Z,99.90
2019-04-30T16:46:18.237Z,99.90
2019-04-30T16:48:58.647Z,99.90
2019-04-30T16:51:28.889Z,99.90
2019-04-30T16:53:58.687Z,99.90
2019-04-30T16:56:28.657Z,99.90
2019-04-30T16:59:02.139Z,99.90
2019-04-30T17:01:32.929Z,99.90
2019-04-30T17:04:21.012Z,99.90
2019-04-30T17:06:58.676Z,99.90
2019-04-30T17:09:39.070Z,99.90
2019-04-30T17:12:19.716Z,99.90
2019-04-30T17:15:09.290Z,99.90
2019-04-30T17:17:39.414Z,99.90
2019-04-30T17:20:08.544Z,99.90
2019-04-30T17:22:39.366Z,99.90
2019-04-30T17:25:08.793Z,99.90
2019-04-30T17:27:39.275Z,99.90
2019-04-30T17:30:09.334Z,99.90
2019-04-30T17:32:39.547Z,99.90
2019-04-30T17:35:09.206Z,99.90
2019-04-30T17:37:38.214Z,99.90
2019-04-30T17:40:09.424Z,99.90
2019-04-30T17:42:38.460Z,99.90
2019-04-30T17:45:09.458Z,99.90
2019-04-30T17:47:38.591Z,99.90
2019-04-30T17:50:09.005Z,99.90
2019-04-30T17:52:38.108Z,99.90
2019-04-30T17:55:09.418Z,99.90
2019-04-30T17:57:40.205Z,99.90
2019-04-30T18:00:18.677Z,99.90
2019-04-30T18:02:40.960Z,99.90
2019-04-30T18:05:11.375Z,99.90
2019-04-30T18:07:40.672Z,99.90
2019-04-30T18:10:11.478Z,99.90
2019-04-30T18:12:40.416Z,99.90
2019-04-30T18:15:14.137Z,99.90
2019-04-30T18:17:45.060Z,99.90
2019-04-30T18:20:21.000Z,99.90
2019-04-30T18:23:08.640Z,99.90
2019-04-30T18:25:45.044Z,99.90
2019-04-30T18:28:13.980Z,99.90
2019-04-30T18:30:42.996Z,99.90
2019-04-30T18:33:12.001Z,99.90
2019-04-30T18:35:41.000Z,99.90
2019-04-30T18:38:09.948Z,99.90
2019-04-30T18:40:39.782Z,99.90
2019-04-30T18:43:09.225Z,99.90
2019-04-30T18:45:39.532Z,99.90
2019-04-30T18:48:09.693Z,99.90
2019-04-30T18:50:38.840Z,99.90
2019-04-30T18:53:14.055Z,99.90
2019-04-30T18:55:42.992Z,99.90
2019-04-30T18:58:12.008Z,99.90
2019-04-30T19:00:50.465Z,99.90
2019-04-30T19:03:21.769Z,99.90
2019-04-30T19:05:54.977Z,99.90
2019-04-30T19:08:35.707Z,99.90
2019-04-30T19:11:13.856Z,99.90
2019-04-30T19:14:04.093Z,99.90
2019-04-30T19:16:54.950Z,99.90
2019-04-30T19:19:43.024Z,99.90
2019-04-30T19:22:11.963Z,99.90
2019-04-30T19:24:53.362Z,99.90
2019-04-30T19:27:11.797Z,99.90
2019-04-30T19:29:40.822Z,99.90
2019-04-30T19:32:09.939Z,99.90
2019-04-30T19:34:39.105Z,99.90
2019-04-30T19:37:08.677Z,99.90
2019-04-30T19:39:39.238Z,99.90
2019-04-30T19:42:09.058Z,99.90
2019-04-30T19:44:39.450Z,99.90
2019-04-30T19:47:09.328Z,99.90
2019-04-30T19:49:38.947Z,99.90
2019-04-30T19:52:11.668Z,99.90
2019-04-30T19:54:39.959Z,99.90
2019-04-30T19:57:10.262Z,99.90
2019-04-30T19:59:39.289Z,99.90
2019-04-30T20:02:08.314Z,99.90
2019-04-30T20:04:39.785Z,99.90
2019-04-30T20:07:08.795Z,99.90
2019-04-30T20:09:58.429Z,99.90
2019-04-30T20:12:19.814Z,99.90
2019-04-30T20:14:49.604Z,99.90
2019-04-30T20:17:19.493Z,99.90
2019-04-30T20:19:48.979Z,99.90
2019-04-30T20:22:19.653Z,99.90
2019-04-30T20:24:49.174Z,99.90
2019-04-30T20:27:18.988Z,99.90
2019-04-30T20:29:49.322Z,99.90
2019-04-30T20:32:23.541Z,99.90
2019-04-30T20:34:50.180Z,99.90
2019-04-30T20:37:19.659Z,99.90
2019-04-30T20:39:59.779Z,99.90
2019-04-30T20:42:28.812Z,99.90
2019-04-30T20:44:58.911Z,99.90
2019-04-30T20:47:29.881Z,99.90
2019-04-30T20:49:58.615Z,99.90
2019-04-30T20:52:29.019Z,99.90
2019-04-30T20:54:58.084Z,99.90
2019-04-30T20:57:27.033Z,99.90
2019-04-30T20:59:55.908Z,99.90
2019-04-30T21:02:24.840Z,99.90
2019-04-30T21:04:53.798Z,99.90
2019-04-30T21:07:22.757Z,99.90
2019-04-30T21:09:51.709Z,99.90
2019-04-30T21:12:20.638Z,99.90
2019-04-30T21:14:49.580Z,99.90
2019-04-30T21:17:18.608Z,99.90
2019-04-30T21:19:47.623Z,99.90
2019-04-30T21:22:16.708Z,99.90
2019-04-30T21:24:45.655Z,99.90
2019-04-30T21:27:14.674Z,99.90
2019-04-30T21:29:43.827Z,99.90
2019-04-30T21:32:25.437Z,99.90
2019-04-30T21:35:11.964Z,99.90
2019-04-30T21:37:40.835Z,99.90
2019-04-30T21:40:09.920Z,99.90
2019-04-30T21:42:38.877Z,99.90
2019-04-30T21:45:15.129Z,99.90
2019-04-30T21:47:55.780Z,99.90
2019-04-30T21:50:14.899Z,99.90
2019-04-30T21:52:43.906Z,99.90
2019-04-30T21:55:12.931Z,99.90
2019-04-30T21:57:41.865Z,99.90
2019-04-30T22:00:13.357Z,99.90
2019-04-30T22:02:42.360Z,99.90
2019-04-30T22:05:11.592Z,99.90
2019-04-30T22:07:40.519Z,99.90
2019-04-30T22:10:09.800Z,99.90
2019-04-30T22:12:38.941Z,99.90
2019-04-30T22:15:08.564Z,99.90
2019-04-30T22:17:39.221Z,99.90
2019-04-30T22:20:09.588Z,99.90
2019-04-30T22:22:39.197Z,99.90
2019-04-30T22:25:09.458Z,99.90
2019-04-30T22:27:38.308Z,99.90
2019-04-30T22:30:07.430Z,99.90
2019-04-30T22:32:36.297Z,99.90
2019-04-30T22:35:23.865Z,99.90
2019-04-30T22:37:59.245Z,99.90
2019-04-30T22:40:31.313Z,99.90
2019-04-30T22:42:59.332Z,99.90
2019-04-30T22:45:33.340Z,99.90
2019-04-30T22:48:02.342Z,99.90
2019-04-30T22:50:31.343Z,99.90
2019-04-30T22:53:00.197Z,99.90
2019-04-30T22:55:29.104Z,99.90
2019-04-30T22:57:58.042Z,99.90
2019-04-30T23:00:41.247Z,99.90
2019-04-30T23:03:13.177Z,99.90
2019-04-30T23:05:42.185Z,99.90
2019-04-30T23:08:11.120Z,99.90
2019-04-30T23:10:40.064Z,99.90
2019-04-30T23:13:09.074Z,99.90
2019-04-30T23:15:38.134Z,99.90
2019-04-30T23:18:07.137Z,99.90
2019-04-30T23:20:36.076Z,99.90
2019-04-30T23:23:05.194Z,99.90
2019-04-30T23:25:34.144Z,99.90
2019-04-30T23:28:03.081Z,99.90
2019-04-30T23:30:32.025Z,99.90
2019-04-30T23:33:00.964Z,99.90
2019-04-30T23:35:29.889Z,99.90
2019-04-30T23:37:58.925Z,99.90
2019-04-30T23:40:29.989Z,99.90
2019-04-30T23:42:59.173Z,99.90
2019-04-30T23:45:28.182Z,99.90
2019-04-30T23:47:57.172Z,99.90
2019-04-30T23:50:26.191Z,99.90
2019-04-30T23:52:55.183Z,99.90
2019-04-30T23:55:24.184Z,99.90
2019-04-30T23:57:53.204Z,99.90
